sensor_id;sensor_type;location;lat;lon;timestamp;pressure;altitude;pressure_sealevel;temperature;humidity
69980;BME280;57318;56.232;43.944;2023-01-29T00:01:03;99488.25;;;-4.51;75.03
69980;BME280;57318;56.232;43.944;2023-01-29T00:03:29;99490.81;;;-4.49;75.41
69980;BME280;57318;56.232;43.944;2023-01-29T00:05:54;99484.75;;;-4.50;75.76
69980;BME280;57318;56.232;43.944;2023-01-29T00:08:20;99483.03;;;-4.49;75.95
69980;BME280;57318;56.232;43.944;2023-01-29T00:10:45;99487.34;;;-4.50;75.92
69980;BME280;57318;56.232;43.944;2023-01-29T00:13:12;99485.66;;;-4.51;76.42
69980;BME280;57318;56.232;43.944;2023-01-29T00:15:38;99473.53;;;-4.50;76.66
69980;BME280;57318;56.232;43.944;2023-01-29T00:18:03;99466.59;;;-4.50;77.17
69980;BME280;57318;56.232;43.944;2023-01-29T00:20:29;99458.00;;;-4.52;77.81
69980;BME280;57318;56.232;43.944;2023-01-29T00:22:55;99449.38;;;-4.53;78.12
69980;BME280;57318;56.232;43.944;2023-01-29T00:25:21;99459.72;;;-4.51;78.25
69980;BME280;57318;56.232;43.944;2023-01-29T00:27:47;99462.31;;;-4.51;78.97
69980;BME280;57318;56.232;43.944;2023-01-29T00:30:12;99453.63;;;-4.50;79.65
69980;BME280;57318;56.232;43.944;2023-01-29T00:32:44;99447.56;;;-4.49;80.20
69980;BME280;57318;56.232;43.944;2023-01-29T00:35:10;99437.13;;;-4.46;80.31
69980;BME280;57318;56.232;43.944;2023-01-29T00:37:36;99449.13;;;-4.42;81.02
69980;BME280;57318;56.232;43.944;2023-01-29T00:40:03;99443.91;;;-4.39;81.56
69980;BME280;57318;56.232;43.944;2023-01-29T00:42:29;99441.22;;;-4.34;81.67
69980;BME280;57318;56.232;43.944;2023-01-29T00:45:13;99440.31;;;-4.31;81.90
69980;BME280;57318;56.232;43.944;2023-01-29T00:47:39;99442.84;;;-4.28;82.13
69980;BME280;57318;56.232;43.944;2023-01-29T00:50:07;99437.63;;;-4.27;82.44
69980;BME280;57318;56.232;43.944;2023-01-29T00:52:34;99434.16;;;-4.26;82.70
69980;BME280;57318;56.232;43.944;2023-01-29T00:55:02;99421.19;;;-4.26;82.66
69980;BME280;57318;56.232;43.944;2023-01-29T00:57:30;99430.66;;;-4.25;82.68
69980;BME280;57318;56.232;43.944;2023-01-29T00:59:56;99427.19;;;-4.24;83.40
69980;BME280;57318;56.232;43.944;2023-01-29T01:02:21;99423.75;;;-4.24;83.69
69980;BME280;57318;56.232;43.944;2023-01-29T01:05:07;99408.13;;;-4.21;83.81
69980;BME280;57318;56.232;43.944;2023-01-29T01:07:39;99415.88;;;-4.20;83.94
69980;BME280;57318;56.232;43.944;2023-01-29T01:10:06;99409.81;;;-4.20;84.19
69980;BME280;57318;56.232;43.944;2023-01-29T01:15:21;99399.41;;;-4.19;84.45
69980;BME280;57318;56.232;43.944;2023-01-29T01:17:51;99395.09;;;-4.18;84.55
69980;BME280;57318;56.232;43.944;2023-01-29T01:20:16;99404.56;;;-4.17;84.85
69980;BME280;57318;56.232;43.944;2023-01-29T01:22:42;99400.25;;;-4.17;85.01
69980;BME280;57318;56.232;43.944;2023-01-29T01:25:09;99397.56;;;-4.13;85.12
69980;BME280;57318;56.232;43.944;2023-01-29T01:27:34;99386.41;;;-4.17;85.39
69980;BME280;57318;56.232;43.944;2023-01-29T01:30:15;99391.66;;;-4.20;85.48
69980;BME280;57318;56.232;43.944;2023-01-29T01:32:41;99392.56;;;-4.21;85.68
69980;BME280;57318;56.232;43.944;2023-01-29T01:35:09;99394.25;;;-4.20;86.14
69980;BME280;57318;56.232;43.944;2023-01-29T01:37:34;99390.88;;;-4.24;86.59
69980;BME280;57318;56.232;43.944;2023-01-29T01:40:03;99396.94;;;-4.25;86.91
69980;BME280;57318;56.232;43.944;2023-01-29T01:42:30;99389.16;;;-4.25;87.10
69980;BME280;57318;56.232;43.944;2023-01-29T01:45:01;99388.31;;;-4.25;87.24
69980;BME280;57318;56.232;43.944;2023-01-29T01:47:36;99383.13;;;-4.25;87.68
69980;BME280;57318;56.232;43.944;2023-01-29T01:52:52;99380.53;;;-4.25;87.46
69980;BME280;57318;56.232;43.944;2023-01-29T01:55:22;99388.22;;;-4.21;87.67
69980;BME280;57318;56.232;43.944;2023-01-29T01:57:52;99392.56;;;-4.21;87.79
69980;BME280;57318;56.232;43.944;2023-01-29T02:00:20;99395.16;;;-4.21;88.08
69980;BME280;57318;56.232;43.944;2023-01-29T02:02:49;99386.53;;;-4.23;88.10
69980;BME280;57318;56.232;43.944;2023-01-29T02:05:34;99392.63;;;-4.24;88.28
69980;BME280;57318;56.232;43.944;2023-01-29T02:08:25;99392.56;;;-4.21;88.28
69980;BME280;57318;56.232;43.944;2023-01-29T02:11:12;99397.69;;;-4.18;88.07
69980;BME280;57318;56.232;43.944;2023-01-29T02:13:38;99382.16;;;-4.20;88.16
69980;BME280;57318;56.232;43.944;2023-01-29T02:16:04;99384.75;;;-4.20;88.22
69980;BME280;57318;56.232;43.944;2023-01-29T02:18:30;99379.53;;;-4.18;88.04
69980;BME280;57318;56.232;43.944;2023-01-29T02:26:43;99368.22;;;-4.15;88.02
69980;BME280;57318;56.232;43.944;2023-01-29T02:32:05;99364.69;;;-4.13;88.27
69980;BME280;57318;56.232;43.944;2023-01-29T02:34:44;99356.03;;;-4.13;87.98
69980;BME280;57318;56.232;43.944;2023-01-29T02:37:37;99362.13;;;-4.14;88.05
69980;BME280;57318;56.232;43.944;2023-01-29T02:40:06;99362.09;;;-4.13;87.81
69980;BME280;57318;56.232;43.944;2023-01-29T02:42:39;99359.50;;;-4.13;87.94
69980;BME280;57318;56.232;43.944;2023-01-29T02:45:16;99358.59;;;-4.12;87.69
69980;BME280;57318;56.232;43.944;2023-01-29T02:50:21;99337.84;;;-4.12;88.03
69980;BME280;57318;56.232;43.944;2023-01-29T02:58:32;99339.63;;;-4.14;87.87
69980;BME280;57318;56.232;43.944;2023-01-29T03:01:08;99339.56;;;-4.11;87.90
69980;BME280;57318;56.232;43.944;2023-01-29T03:03:40;99324.06;;;-4.14;88.02
69980;BME280;57318;56.232;43.944;2023-01-29T03:06:31;99323.16;;;-4.11;88.05
69980;BME280;57318;56.232;43.944;2023-01-29T03:09:04;99331.78;;;-4.11;87.96
69980;BME280;57318;56.232;43.944;2023-01-29T03:11:35;99330.91;;;-4.10;87.74
69980;BME280;57318;56.232;43.944;2023-01-29T03:14:13;99336.13;;;-4.11;87.59
69980;BME280;57318;56.232;43.944;2023-01-29T03:16:48;99330.94;;;-4.11;87.85
69980;BME280;57318;56.232;43.944;2023-01-29T03:19:50;99326.56;;;-4.09;87.91
69980;BME280;57318;56.232;43.944;2023-01-29T03:22:09;99312.78;;;-4.11;87.85
69980;BME280;57318;56.232;43.944;2023-01-29T03:24:45;99322.28;;;-4.12;87.74
69980;BME280;57318;56.232;43.944;2023-01-29T03:27:39;99317.97;;;-4.11;87.74
69980;BME280;57318;56.232;43.944;2023-01-29T03:30:27;99321.41;;;-4.11;87.70
69980;BME280;57318;56.232;43.944;2023-01-29T03:33:14;99317.94;;;-4.10;87.89
69980;BME280;57318;56.232;43.944;2023-01-29T03:35:52;99309.25;;;-4.10;87.86
69980;BME280;57318;56.232;43.944;2023-01-29T03:38:22;99308.44;;;-4.11;87.99
69980;BME280;57318;56.232;43.944;2023-01-29T03:46:26;99287.72;;;-4.14;87.89
69980;BME280;57318;56.232;43.944;2023-01-29T03:48:57;99288.56;;;-4.13;87.75
69980;BME280;57318;56.232;43.944;2023-01-29T03:56:53;99296.41;;;-4.15;87.68
69980;BME280;57318;56.232;43.944;2023-01-29T04:01:53;99297.28;;;-4.14;87.06
69980;BME280;57318;56.232;43.944;2023-01-29T04:04:27;99305.94;;;-4.15;86.17
69980;BME280;57318;56.232;43.944;2023-01-29T04:07:12;99294.75;;;-4.18;85.63
69980;BME280;57318;56.232;43.944;2023-01-29T04:09:46;99292.19;;;-4.19;85.43
69980;BME280;57318;56.232;43.944;2023-01-29T04:12:16;99292.25;;;-4.22;84.98
69980;BME280;57318;56.232;43.944;2023-01-29T04:14:43;99285.38;;;-4.25;84.46
69980;BME280;57318;56.232;43.944;2023-01-29T04:17:30;99287.13;;;-4.25;84.32
69980;BME280;57318;56.232;43.944;2023-01-29T04:20:00;99290.63;;;-4.28;83.82
69980;BME280;57318;56.232;43.944;2023-01-29T04:22:32;99281.22;;;-4.32;83.34
69980;BME280;57318;56.232;43.944;2023-01-29T04:25:02;99284.72;;;-4.35;83.81
69980;BME280;57318;56.232;43.944;2023-01-29T04:30:29;99277.81;;;-4.36;83.45
69980;BME280;57318;56.232;43.944;2023-01-29T04:35:47;99261.53;;;-4.41;83.53
69980;BME280;57318;56.232;43.944;2023-01-29T04:41:32;99258.22;;;-4.47;83.39
69980;BME280;57318;56.232;43.944;2023-01-29T04:44:09;99251.34;;;-4.50;83.64
69980;BME280;57318;56.232;43.944;2023-01-29T04:49:31;99240.28;;;-4.58;83.53
69980;BME280;57318;56.232;43.944;2023-01-29T04:57:44;99248.19;;;-4.64;83.72
69980;BME280;57318;56.232;43.944;2023-01-29T05:00:17;99237.03;;;-4.66;83.38
69980;BME280;57318;56.232;43.944;2023-01-29T05:02:44;99246.50;;;-4.67;83.62
69980;BME280;57318;56.232;43.944;2023-01-29T05:05:12;99231.09;;;-4.72;83.58
69980;BME280;57318;56.232;43.944;2023-01-29T05:07:39;99240.56;;;-4.71;83.59
69980;BME280;57318;56.232;43.944;2023-01-29T05:10:09;99236.28;;;-4.72;83.76
69980;BME280;57318;56.232;43.944;2023-01-29T05:12:36;99233.69;;;-4.72;83.50
69980;BME280;57318;56.232;43.944;2023-01-29T05:15:08;99240.56;;;-4.71;83.49
69980;BME280;57318;56.232;43.944;2023-01-29T05:17:36;99238.88;;;-4.72;82.96
69980;BME280;57318;56.232;43.944;2023-01-29T05:20:02;99233.69;;;-4.72;83.00
69980;BME280;57318;56.232;43.944;2023-01-29T05:22:29;99238.06;;;-4.75;82.97
69980;BME280;57318;56.232;43.944;2023-01-29T05:24:55;99238.09;;;-4.77;82.96
69980;BME280;57318;56.232;43.944;2023-01-29T05:27:25;99239.00;;;-4.78;83.14
69980;BME280;57318;56.232;43.944;2023-01-29T05:30:12;99230.31;;;-4.77;83.02
69980;BME280;57318;56.232;43.944;2023-01-29T05:32:37;99235.56;;;-4.80;82.96
69980;BME280;57318;56.232;43.944;2023-01-29T05:35:04;99220.00;;;-4.80;82.87
69980;BME280;57318;56.232;43.944;2023-01-29T05:37:30;99228.66;;;-4.79;82.92
69980;BME280;57318;56.232;43.944;2023-01-29T05:39:56;99220.88;;;-4.79;82.65
69980;BME280;57318;56.232;43.944;2023-01-29T05:42:21;99223.53;;;-4.82;82.58
69980;BME280;57318;56.232;43.944;2023-01-29T05:44:47;99211.38;;;-4.80;82.46
69980;BME280;57318;56.232;43.944;2023-01-29T05:47:13;99222.59;;;-4.80;82.90
69980;BME280;57318;56.232;43.944;2023-01-29T05:49:38;99222.63;;;-4.81;82.38
69980;BME280;57318;56.232;43.944;2023-01-29T05:52:04;99225.25;;;-4.83;82.35
69980;BME280;57318;56.232;43.944;2023-01-29T05:54:29;99213.19;;;-4.84;82.42
69980;BME280;57318;56.232;43.944;2023-01-29T05:56:55;99216.66;;;-4.85;82.27
69980;BME280;57318;56.232;43.944;2023-01-29T05:59:21;99216.66;;;-4.85;82.51
69980;BME280;57318;56.232;43.944;2023-01-29T06:01:46;99208.97;;;-4.90;82.48
69980;BME280;57318;56.232;43.944;2023-01-29T06:04:12;99214.13;;;-4.88;82.56
69980;BME280;57318;56.232;43.944;2023-01-29T06:06:38;99216.72;;;-4.88;82.30
69980;BME280;57318;56.232;43.944;2023-01-29T06:09:04;99214.97;;;-4.87;82.21
69980;BME280;57318;56.232;43.944;2023-01-29T06:11:29;99210.72;;;-4.90;82.16
69980;BME280;57318;56.232;43.944;2023-01-29T06:13:55;99209.78;;;-4.87;82.26
69980;BME280;57318;56.232;43.944;2023-01-29T06:16:20;99201.25;;;-4.91;82.43
69980;BME280;57318;56.232;43.944;2023-01-29T06:18:46;99204.59;;;-4.87;82.19
69980;BME280;57318;56.232;43.944;2023-01-29T06:21:12;99198.50;;;-4.83;82.11
69980;BME280;57318;56.232;43.944;2023-01-29T06:23:38;99201.94;;;-4.84;82.13
69980;BME280;57318;56.232;43.944;2023-01-29T06:26:09;99192.47;;;-4.84;81.78
69980;BME280;57318;56.232;43.944;2023-01-29T06:28:35;99197.63;;;-4.82;81.95
69980;BME280;57318;56.232;43.944;2023-01-29T06:31:02;99194.19;;;-4.84;81.57
69980;BME280;57318;56.232;43.944;2023-01-29T06:33:27;99187.28;;;-4.84;81.58
69980;BME280;57318;56.232;43.944;2023-01-29T06:36:01;99199.25;;;-4.80;81.60
69980;BME280;57318;56.232;43.944;2023-01-29T06:38:28;99179.38;;;-4.78;81.43
69980;BME280;57318;56.232;43.944;2023-01-29T06:40:54;99188.00;;;-4.77;81.37
69980;BME280;57318;56.232;43.944;2023-01-29T06:43:20;99180.25;;;-4.79;80.85
69980;BME280;57318;56.232;43.944;2023-01-29T06:45:53;99167.34;;;-4.82;81.05
69980;BME280;57318;56.232;43.944;2023-01-29T06:48:19;99175.06;;;-4.79;80.89
69980;BME280;57318;56.232;43.944;2023-01-29T06:50:45;99179.44;;;-4.81;80.42
69980;BME280;57318;56.232;43.944;2023-01-29T06:53:11;99177.69;;;-4.80;80.05
69980;BME280;57318;56.232;43.944;2023-01-29T06:55:37;99182.84;;;-4.79;80.08
69980;BME280;57318;56.232;43.944;2023-01-29T06:58:07;99171.59;;;-4.78;80.11
69980;BME280;57318;56.232;43.944;2023-01-29T07:00:33;99181.94;;;-4.76;80.42
69980;BME280;57318;56.232;43.944;2023-01-29T07:02:59;99169.69;;;-4.69;80.17
69980;BME280;57318;56.232;43.944;2023-01-29T07:05:25;99177.41;;;-4.68;80.05
69980;BME280;57318;56.232;43.944;2023-01-29T07:07:50;99175.75;;;-4.71;80.22
69980;BME280;57318;56.232;43.944;2023-01-29T07:10:16;99171.38;;;-4.68;79.93
69980;BME280;57318;56.232;43.944;2023-01-29T07:12:42;99174.84;;;-4.68;80.40
69980;BME280;57318;56.232;43.944;2023-01-29T07:15:08;99174.88;;;-4.69;79.74
69980;BME280;57318;56.232;43.944;2023-01-29T07:17:33;99178.31;;;-4.71;80.31
69980;BME280;57318;56.232;43.944;2023-01-29T07:19:59;99170.53;;;-4.69;80.09
69980;BME280;57318;56.232;43.944;2023-01-29T07:22:25;99165.34;;;-4.69;80.37
69980;BME280;57318;56.232;43.944;2023-01-29T07:24:50;99162.63;;;-4.64;79.97
69980;BME280;57318;56.232;43.944;2023-01-29T07:27:16;99163.31;;;-4.56;80.09
69980;BME280;57318;56.232;43.944;2023-01-29T07:29:41;99161.50;;;-4.51;79.64
69980;BME280;57318;56.232;43.944;2023-01-29T07:32:07;99169.13;;;-4.45;79.48
69980;BME280;57318;56.232;43.944;2023-01-29T07:34:32;99163.09;;;-4.47;78.57
69980;BME280;57318;56.232;43.944;2023-01-29T07:36:58;99155.41;;;-4.50;78.53
69980;BME280;57318;56.232;43.944;2023-01-29T07:39:24;99154.50;;;-4.49;78.27
69980;BME280;57318;56.232;43.944;2023-01-29T07:41:49;99156.22;;;-4.48;78.45
69980;BME280;57318;56.232;43.944;2023-01-29T07:44:15;99161.44;;;-4.49;78.17
69980;BME280;57318;56.232;43.944;2023-01-29T07:46:41;99158.00;;;-4.50;77.55
69980;BME280;57318;56.232;43.944;2023-01-29T07:49:06;99144.19;;;-4.50;77.75
69980;BME280;57318;56.232;43.944;2023-01-29T07:51:32;99149.50;;;-4.57;77.54
69980;BME280;57318;56.232;43.944;2023-01-29T07:53:57;99147.66;;;-4.51;76.92
69980;BME280;57318;56.232;43.944;2023-01-29T07:56:23;99145.03;;;-4.50;76.98
69980;BME280;57318;56.232;43.944;2023-01-29T07:58:49;99148.53;;;-4.51;76.67
69980;BME280;57318;56.232;43.944;2023-01-29T08:01:14;99139.66;;;-4.42;76.25
69980;BME280;57318;56.232;43.944;2023-01-29T08:03:40;99142.22;;;-4.41;75.59
69980;BME280;57318;56.232;43.944;2023-01-29T08:06:06;99144.63;;;-4.33;75.61
69980;BME280;57318;56.232;43.944;2023-01-29T08:08:31;99130.59;;;-4.24;75.54
69980;BME280;57318;56.232;43.944;2023-01-29T08:11:00;99136.72;;;-4.28;73.67
69980;BME280;57318;56.232;43.944;2023-01-29T08:13:26;99121.97;;;-4.26;73.86
69980;BME280;57318;56.232;43.944;2023-01-29T08:15:52;99123.69;;;-4.25;73.63
69980;BME280;57318;56.232;43.944;2023-01-29T08:18:18;99129.72;;;-4.25;73.14
69980;BME280;57318;56.232;43.944;2023-01-29T08:20:43;99131.31;;;-4.19;73.41
69980;BME280;57318;56.232;43.944;2023-01-29T08:23:13;99125.25;;;-4.18;72.37
69980;BME280;57318;56.232;43.944;2023-01-29T08:25:39;99131.28;;;-4.18;72.66
69980;BME280;57318;56.232;43.944;2023-01-29T08:28:04;99131.34;;;-4.21;72.47
69980;BME280;57318;56.232;43.944;2023-01-29T08:30:32;99128.91;;;-4.27;72.62
69980;BME280;57318;56.232;43.944;2023-01-29T08:32:58;99120.22;;;-4.24;72.52
69980;BME280;57318;56.232;43.944;2023-01-29T08:35:25;99119.22;;;-4.20;72.73
69980;BME280;57318;56.232;43.944;2023-01-29T08:37:55;99120.91;;;-4.18;72.30
69980;BME280;57318;56.232;43.944;2023-01-29T08:40:22;99113.16;;;-4.19;72.83
69980;BME280;57318;56.232;43.944;2023-01-29T08:42:48;99099.34;;;-4.20;72.21
69980;BME280;57318;56.232;43.944;2023-01-29T08:45:15;99097.84;;;-4.30;72.24
69980;BME280;57318;56.232;43.944;2023-01-29T08:47:48;99097.91;;;-4.31;72.35
69980;BME280;57318;56.232;43.944;2023-01-29T08:50:14;99089.38;;;-4.37;72.21
69980;BME280;57318;56.232;43.944;2023-01-29T08:52:45;99080.94;;;-4.45;72.52
69980;BME280;57318;56.232;43.944;2023-01-29T08:55:12;99087.97;;;-4.50;72.33
69980;BME280;57318;56.232;43.944;2023-01-29T08:57:39;99094.88;;;-4.49;72.89
69980;BME280;57318;56.232;43.944;2023-01-29T09:00:07;99098.28;;;-4.47;72.74
69980;BME280;57318;56.232;43.944;2023-01-29T09:02:33;99082.84;;;-4.53;72.09
69980;BME280;57318;56.232;43.944;2023-01-29T09:04:59;99087.25;;;-4.55;72.39
69980;BME280;57318;56.232;43.944;2023-01-29T09:07:25;99080.41;;;-4.59;71.62
69980;BME280;57318;56.232;43.944;2023-01-29T09:09:51;99079.75;;;-4.67;71.84
69980;BME280;57318;56.232;43.944;2023-01-29T09:12:16;99080.56;;;-4.65;72.45
69980;BME280;57318;56.232;43.944;2023-01-29T09:14:42;99072.03;;;-4.71;72.22
69980;BME280;57318;56.232;43.944;2023-01-29T09:17:07;99070.16;;;-4.64;71.97
69980;BME280;57318;56.232;43.944;2023-01-29T09:19:33;99073.56;;;-4.62;71.78
69980;BME280;57318;56.232;43.944;2023-01-29T09:21:59;99070.66;;;-4.48;71.82
69980;BME280;57318;56.232;43.944;2023-01-29T09:24:24;99067.88;;;-4.42;70.82
69980;BME280;57318;56.232;43.944;2023-01-29T09:26:50;99076.50;;;-4.40;71.08
69980;BME280;57318;56.232;43.944;2023-01-29T09:29:15;99059.94;;;-4.36;71.11
69980;BME280;57318;56.232;43.944;2023-01-29T09:31:41;99062.69;;;-4.42;69.66
69980;BME280;57318;56.232;43.944;2023-01-29T09:34:07;99060.19;;;-4.45;70.07
69980;BME280;57318;56.232;43.944;2023-01-29T09:36:32;99065.28;;;-4.42;69.95
69980;BME280;57318;56.232;43.944;2023-01-29T09:38:58;99063.53;;;-4.40;70.39
69980;BME280;57318;56.232;43.944;2023-01-29T09:41:42;99063.34;;;-4.32;70.35
69980;BME280;57318;56.232;43.944;2023-01-29T09:44:39;99069.47;;;-4.36;69.14
69980;BME280;57318;56.232;43.944;2023-01-29T09:47:14;99061.88;;;-4.44;69.04
69980;BME280;57318;56.232;43.944;2023-01-29T09:49:46;99061.16;;;-4.49;69.05
69980;BME280;57318;56.232;43.944;2023-01-29T09:57:24;99043.09;;;-4.52;68.79
69980;BME280;57318;56.232;43.944;2023-01-29T09:59:52;99036.25;;;-4.56;69.01
69980;BME280;57318;56.232;43.944;2023-01-29T10:13:14;99021.91;;;-4.69;69.80
69980;BME280;57318;56.232;43.944;2023-01-29T10:19:03;99023.00;;;-4.80;70.21
69980;BME280;57318;56.232;43.944;2023-01-29T10:26:37;99002.66;;;-4.95;70.66
69980;BME280;57318;56.232;43.944;2023-01-29T10:29:06;99004.44;;;-4.97;70.60
69980;BME280;57318;56.232;43.944;2023-01-29T10:31:36;99001.09;;;-5.02;70.37
69980;BME280;57318;56.232;43.944;2023-01-29T10:34:18;98991.66;;;-5.05;70.72
69980;BME280;57318;56.232;43.944;2023-01-29T10:36:49;98989.09;;;-5.07;70.68
69980;BME280;57318;56.232;43.944;2023-01-29T10:41:59;98983.09;;;-5.07;71.07
69980;BME280;57318;56.232;43.944;2023-01-29T10:47:21;98981.63;;;-5.19;70.55
69980;BME280;57318;56.232;43.944;2023-01-29T10:50:01;98978.44;;;-5.30;71.14
69980;BME280;57318;56.232;43.944;2023-01-29T10:52:42;98968.03;;;-5.29;71.32
69980;BME280;57318;56.232;43.944;2023-01-29T11:00:35;98979.72;;;-5.48;72.00
69980;BME280;57318;56.232;43.944;2023-01-29T11:03:29;98974.56;;;-5.50;72.12
69980;BME280;57318;56.232;43.944;2023-01-29T11:09:23;98964.22;;;-5.50;72.10
69980;BME280;57318;56.232;43.944;2023-01-29T11:14:41;98961.00;;;-5.59;72.14
69980;BME280;57318;56.232;43.944;2023-01-29T11:17:22;98965.31;;;-5.62;72.52
69980;BME280;57318;56.232;43.944;2023-01-29T11:19:49;98964.59;;;-5.67;72.43
69980;BME280;57318;56.232;43.944;2023-01-29T11:22:27;98970.69;;;-5.71;72.65
69980;BME280;57318;56.232;43.944;2023-01-29T11:27:54;98946.63;;;-5.74;73.07
69980;BME280;57318;56.232;43.944;2023-01-29T11:30:26;98940.72;;;-5.80;73.35
69980;BME280;57318;56.232;43.944;2023-01-29T11:35:31;98939.00;;;-5.81;73.40
69980;BME280;57318;56.232;43.944;2023-01-29T11:38:24;98944.91;;;-5.75;73.67
69980;BME280;57318;56.232;43.944;2023-01-29T11:40:50;98936.38;;;-5.79;73.78
69980;BME280;57318;56.232;43.944;2023-01-29T11:45:42;98948.53;;;-5.83;73.90
69980;BME280;57318;56.232;43.944;2023-01-29T11:48:19;98938.16;;;-5.81;73.98
69980;BME280;57318;56.232;43.944;2023-01-29T11:50:57;98938.09;;;-5.78;74.28
69980;BME280;57318;56.232;43.944;2023-01-29T11:56:06;98924.25;;;-5.77;74.14
69980;BME280;57318;56.232;43.944;2023-01-29T11:58:41;98926.88;;;-5.78;73.73
69980;BME280;57318;56.232;43.944;2023-01-29T12:01:08;98917.50;;;-5.83;73.90
69980;BME280;57318;56.232;43.944;2023-01-29T12:03:44;98907.16;;;-5.84;74.01
69980;BME280;57318;56.232;43.944;2023-01-29T12:08:56;98919.16;;;-5.82;74.72
69980;BME280;57318;56.232;43.944;2023-01-29T12:11:31;98922.63;;;-5.81;74.71
69980;BME280;57318;56.232;43.944;2023-01-29T12:13:59;98916.59;;;-5.82;74.69
69980;BME280;57318;56.232;43.944;2023-01-29T12:16:52;98912.22;;;-5.78;74.68
69980;BME280;57318;56.232;43.944;2023-01-29T12:19:29;98909.66;;;-5.80;74.27
69980;BME280;57318;56.232;43.944;2023-01-29T12:22:03;98921.69;;;-5.78;74.54
69980;BME280;57318;56.232;43.944;2023-01-29T12:27:27;98939.09;;;-5.85;74.37
69980;BME280;57318;56.232;43.944;2023-01-29T12:35:32;98932.38;;;-5.92;74.85
69980;BME280;57318;56.232;43.944;2023-01-29T12:38:20;98920.31;;;-5.93;75.07
69980;BME280;57318;56.232;43.944;2023-01-29T12:40:59;98911.81;;;-5.97;74.96
69980;BME280;57318;56.232;43.944;2023-01-29T12:43:39;98910.94;;;-5.97;75.10
69980;BME280;57318;56.232;43.944;2023-01-29T12:46:12;98911.88;;;-6.00;74.87
69980;BME280;57318;56.232;43.944;2023-01-29T12:48:43;98924.00;;;-6.04;75.35
69980;BME280;57318;56.232;43.944;2023-01-29T12:51:14;98917.16;;;-6.06;75.50
69980;BME280;57318;56.232;43.944;2023-01-29T12:54:04;98918.88;;;-6.07;75.89
69980;BME280;57318;56.232;43.944;2023-01-29T12:56:37;98925.84;;;-6.10;75.83
69980;BME280;57318;56.232;43.944;2023-01-29T12:59:14;98919.03;;;-6.13;76.01
69980;BME280;57318;56.232;43.944;2023-01-29T13:01:49;98913.94;;;-6.16;75.91
69980;BME280;57318;56.232;43.944;2023-01-29T13:04:40;98910.53;;;-6.20;75.86
69980;BME280;57318;56.232;43.944;2023-01-29T13:07:17;98901.13;;;-6.22;76.41
69980;BME280;57318;56.232;43.944;2023-01-29T13:09:49;98906.34;;;-6.25;76.36
69980;BME280;57318;56.232;43.944;2023-01-29T13:12:18;98908.97;;;-6.27;76.47
69980;BME280;57318;56.232;43.944;2023-01-29T13:19:59;98889.16;;;-6.28;76.71
69980;BME280;57318;56.232;43.944;2023-01-29T13:22:32;98901.25;;;-6.28;76.99
69980;BME280;57318;56.232;43.944;2023-01-29T13:25:00;98891.78;;;-6.29;76.75
69980;BME280;57318;56.232;43.944;2023-01-29T13:27:28;98890.09;;;-6.32;76.85
69980;BME280;57318;56.232;43.944;2023-01-29T13:29:55;98895.31;;;-6.35;76.96
69980;BME280;57318;56.232;43.944;2023-01-29T13:32:29;98896.19;;;-6.35;76.79
69980;BME280;57318;56.232;43.944;2023-01-29T13:35:01;98894.50;;;-6.37;76.97
69980;BME280;57318;56.232;43.944;2023-01-29T13:39:58;98879.91;;;-6.38;76.92
69980;BME280;57318;56.232;43.944;2023-01-29T13:42:51;98874.72;;;-6.38;76.73
69980;BME280;57318;56.232;43.944;2023-01-29T13:45:23;98880.75;;;-6.38;77.20
69980;BME280;57318;56.232;43.944;2023-01-29T13:47:51;98877.34;;;-6.40;76.73
69980;BME280;57318;56.232;43.944;2023-01-29T13:52:56;98874.81;;;-6.43;77.27
69980;BME280;57318;56.232;43.944;2023-01-29T13:55:27;98880.84;;;-6.42;77.28
69980;BME280;57318;56.232;43.944;2023-01-29T13:58:02;98885.13;;;-6.41;76.92
69980;BME280;57318;56.232;43.944;2023-01-29T14:07:55;98892.03;;;-6.42;77.06
69980;BME280;57318;56.232;43.944;2023-01-29T14:10:27;98883.44;;;-6.44;77.17
69980;BME280;57318;56.232;43.944;2023-01-29T14:18:26;98890.44;;;-6.47;76.74
69980;BME280;57318;56.232;43.944;2023-01-29T14:21:03;98885.25;;;-6.47;76.82
69980;BME280;57318;56.232;43.944;2023-01-29T14:23:40;98885.25;;;-6.47;76.82
69980;BME280;57318;56.232;43.944;2023-01-29T14:26:21;98881.03;;;-6.51;76.82
69980;BME280;57318;56.232;43.944;2023-01-29T14:34:33;98873.50;;;-6.64;76.45
69980;BME280;57318;56.232;43.944;2023-01-29T14:37:03;98878.63;;;-6.62;76.80
69980;BME280;57318;56.232;43.944;2023-01-29T14:39:46;98876.91;;;-6.62;77.02
69980;BME280;57318;56.232;43.944;2023-01-29T14:42:24;98879.53;;;-6.65;76.86
69980;BME280;57318;56.232;43.944;2023-01-29T14:50:01;98867.63;;;-6.72;76.89
69980;BME280;57318;56.232;43.944;2023-01-29T14:52:38;98867.72;;;-6.77;76.56
69980;BME280;57318;56.232;43.944;2023-01-29T14:55:13;98868.63;;;-6.79;76.51
69980;BME280;57318;56.232;43.944;2023-01-29T14:57:41;98858.28;;;-6.79;76.90
69980;BME280;57318;56.232;43.944;2023-01-29T15:00:17;98849.72;;;-6.81;76.61
69980;BME280;57318;56.232;43.944;2023-01-29T15:02:48;98856.59;;;-6.80;76.77
69980;BME280;57318;56.232;43.944;2023-01-29T15:05:19;98849.78;;;-6.84;76.35
69980;BME280;57318;56.232;43.944;2023-01-29T15:07:51;98848.13;;;-6.89;76.34
69980;BME280;57318;56.232;43.944;2023-01-29T15:10:33;98856.81;;;-6.91;76.33
69980;BME280;57318;56.232;43.944;2023-01-29T15:13:14;98853.31;;;-6.90;76.41
69980;BME280;57318;56.232;43.944;2023-01-29T15:15:48;98842.22;;;-6.94;76.47
69980;BME280;57318;56.232;43.944;2023-01-29T15:18:21;98841.41;;;-6.96;76.12
69980;BME280;57318;56.232;43.944;2023-01-29T15:21:04;98842.28;;;-6.98;75.88
69980;BME280;57318;56.232;43.944;2023-01-29T15:23:36;98835.41;;;-6.98;75.99
69980;BME280;57318;56.232;43.944;2023-01-29T15:26:04;98832.88;;;-7.01;75.58
69980;BME280;57318;56.232;43.944;2023-01-29T15:28:32;98838.09;;;-7.04;75.61
69980;BME280;57318;56.232;43.944;2023-01-29T15:31:00;98842.47;;;-7.08;75.53
69980;BME280;57318;56.232;43.944;2023-01-29T15:33:29;98839.94;;;-7.11;75.77
69980;BME280;57318;56.232;43.944;2023-01-29T15:35:58;98846.84;;;-7.11;75.69
69980;BME280;57318;56.232;43.944;2023-01-29T15:38:24;98845.16;;;-7.14;75.86